Time;durP1;ratioP1;P1;durP2;ratioP2;P2;SDS_P1;SDS_P2;PMS_P1;PMS_P2;Temp;Humidity;BMP_temperature;BMP_pressure;BME280_temperature;BME280_humidity;BME280_pressure;Samples;Min_cycle;Max_cycle;Signal;HPM_P1;HPM_P2
2023/04/10 00:00:04;;;;;;;;;;;19.30;48.40;;;;;;4991629;28;19922;-55
2023/04/10 00:02:29;;;;;;;;;;;19.20;48.30;;;;;;4999982;28;20009;-55
2023/04/10 00:04:55;;;;;;;;;;;19.20;48.10;;;;;;5012305;28;19910;-55
2023/04/10 00:07:20;;;;;;;;;;;19.20;48.40;;;;;;4994605;28;20267;-55
2023/04/10 00:09:46;;;;;;;;;;;19.20;48.30;;;;;;4992462;28;20268;-55
2023/04/10 00:12:11;;;;;;;;;;;19.10;48.20;;;;;;4990883;28;20371;-55
2023/04/10 00:14:37;;;;;;;;;;;19.10;48.30;;;;;;5023068;28;20378;-55
2023/04/10 00:17:02;;;;;;;;;;;19.10;48.30;;;;;;5001902;28;20021;-55
2023/04/10 00:19:27;;;;;;;;;;;19.10;48.40;;;;;;5010458;28;20321;-55
2023/04/10 00:21:54;;;;;;;;;;;19.10;48.30;;;;;;5005374;28;19918;-56
2023/04/10 00:24:19;;;;;;;;;;;19.10;48.20;;;;;;4983695;28;19914;-55
2023/04/10 00:26:45;;;;;;;;;;;19.10;48.30;;;;;;4985477;28;19914;-55
2023/04/10 00:29:10;;;;;;;;;;;19.00;48.40;;;;;;4985356;28;20290;-54
2023/04/10 00:31:36;;;;;;;;;;;19.00;48.20;;;;;;4984103;28;19926;-55
2023/04/10 00:34:01;;;;;;;;;;;19.00;48.40;;;;;;4984657;28;19921;-55
2023/04/10 00:36:27;;;;;;;;;;;19.00;48.20;;;;;;4987788;28;20393;-55
2023/04/10 00:38:52;;;;;;;;;;;18.90;48.20;;;;;;4988696;28;19936;-55
2023/04/10 00:41:18;;;;;;;;;;;18.90;48.30;;;;;;5016158;28;19928;-55
2023/04/10 00:43:43;;;;;;;;;;;18.90;48.30;;;;;;4993452;28;19925;-55
2023/04/10 00:46:09;;;;;;;;;;;18.90;48.30;;;;;;4986937;28;19917;-54
2023/04/10 00:48:34;;;;;;;;;;;18.90;48.20;;;;;;4988411;28;20013;-55
2023/04/10 00:51:00;;;;;;;;;;;18.90;48.40;;;;;;4988447;28;20070;-55
2023/04/10 00:53:25;;;;;;;;;;;18.80;48.30;;;;;;5017318;28;19921;-55
2023/04/10 00:55:51;;;;;;;;;;;18.80;48.20;;;;;;4986900;28;20060;-55
2023/04/10 00:58:16;;;;;;;;;;;18.80;48.20;;;;;;4988215;28;19964;-55
2023/04/10 01:00:42;;;;;;;;;;;18.80;48.30;;;;;;4987076;28;19925;-55
2023/04/10 01:03:08;;;;;;;;;;;18.70;48.30;;;;;;4988402;28;19925;-55
2023/04/10 01:05:41;;;;;;;;;;;18.70;48.30;;;;;;4987557;28;19964;-55
2023/04/10 01:08:35;;;;;;;;;;;18.70;48.30;;;;;;4987867;28;19995;-55
2023/04/10 01:11:21;;;;;;;;;;;18.70;49.20;;;;;;4994758;28;20008;-54
2023/04/10 01:14:05;;;;;;;;;;;18.70;48.30;;;;;;5003711;28;20238;-55
2023/04/10 01:16:33;;;;;;;;;;;18.90;48.70;;;;;;5006209;28;19913;-55
2023/04/10 01:19:06;;;;;;;;;;;19.10;48.20;;;;;;5035262;28;19921;-55
2023/04/10 01:21:32;;;;;;;;;;;19.40;47.70;;;;;;5028191;28;19924;-55
2023/04/10 01:24:00;;;;;;;;;;;19.70;47.00;;;;;;4997718;28;20393;-55
2023/04/10 01:26:31;;;;;;;;;;;20.00;46.60;;;;;;5014984;28;19916;-55
2023/04/10 01:29:00;;;;;;;;;;;20.20;45.90;;;;;;5020127;28;19963;-55
2023/04/10 01:31:28;;;;;;;;;;;20.70;45.30;;;;;;5006128;28;20374;-53
2023/04/10 01:33:57;;;;;;;;;;;21.10;44.50;;;;;;5008673;28;19971;-55
2023/04/10 01:36:27;;;;;;;;;;;21.40;43.70;;;;;;5005297;28;19914;-55
2023/04/10 01:38:52;;;;;;;;;;;21.80;43.20;;;;;;5043009;28;19922;-55
2023/04/10 01:41:18;;;;;;;;;;;21.90;42.80;;;;;;4993376;28;19933;-53
2023/04/10 01:43:44;;;;;;;;;;;21.90;42.80;;;;;;5018705;28;19924;-55
2023/04/10 01:46:09;;;;;;;;;;;21.80;43.00;;;;;;5016034;28;20445;-53
2023/04/10 01:48:34;;;;;;;;;;;21.60;43.20;;;;;;5019072;28;20385;-53
2023/04/10 01:51:01;;;;;;;;;;;21.50;43.60;;;;;;4985922;28;19925;-53
2023/04/10 01:53:27;;;;;;;;;;;21.30;43.90;;;;;;4987167;28;19917;-53
2023/04/10 01:55:53;;;;;;;;;;;21.10;44.30;;;;;;4984851;28;19925;-53
2023/04/10 01:58:18;;;;;;;;;;;20.90;44.50;;;;;;5001438;28;19918;-54
2023/04/10 02:00:44;;;;;;;;;;;20.80;44.80;;;;;;5016166;28;19937;-53
2023/04/10 02:03:09;;;;;;;;;;;20.70;45.00;;;;;;4987534;28;19920;-54
2023/04/10 02:05:55;;;;;;;;;;;20.70;45.00;;;;;;4988100;28;20064;-54
2023/04/10 02:08:30;;;;;;;;;;;20.60;44.90;;;;;;5015355;28;19921;-54
2023/04/10 02:11:08;;;;;;;;;;;20.60;45.00;;;;;;4985819;28;19937;-55
2023/04/10 02:13:34;;;;;;;;;;;20.50;45.20;;;;;;5018263;28;20302;-54
2023/04/10 02:15:59;;;;;;;;;;;20.50;45.20;;;;;;4985738;28;19921;-54
2023/04/10 02:18:25;;;;;;;;;;;20.40;45.30;;;;;;4987283;28;19921;-54
2023/04/10 02:20:51;;;;;;;;;;;20.40;45.40;;;;;;4982683;28;19917;-54
2023/04/10 02:23:18;;;;;;;;;;;20.30;45.40;;;;;;4985597;28;19918;-54
2023/04/10 02:25:43;;;;;;;;;;;20.30;45.60;;;;;;4985988;28;19921;-53
2023/04/10 02:28:09;;;;;;;;;;;20.20;45.70;;;;;;4987787;28;20901;-54
2023/04/10 02:30:34;;;;;;;;;;;20.10;45.80;;;;;;4985315;28;19925;-54
2023/04/10 02:33:00;;;;;;;;;;;20.10;45.80;;;;;;4986157;28;19929;-54
2023/04/10 02:35:26;;;;;;;;;;;20.00;45.80;;;;;;4984973;28;19965;-54
2023/04/10 02:37:51;;;;;;;;;;;20.00;46.00;;;;;;4986293;28;20008;-54
2023/04/10 02:40:17;;;;;;;;;;;20.00;46.00;;;;;;5013959;28;20080;-54
2023/04/10 02:42:42;;;;;;;;;;;20.10;46.50;;;;;;4987103;28;19914;-54
2023/04/10 02:45:08;;;;;;;;;;;20.20;45.50;;;;;;4985091;28;19929;-54
2023/04/10 02:47:33;;;;;;;;;;;20.40;45.20;;;;;;4986505;28;19922;-54
2023/04/10 02:49:59;;;;;;;;;;;20.60;44.90;;;;;;4985615;28;20035;-54
2023/04/10 02:52:24;;;;;;;;;;;20.70;44.60;;;;;;4983756;28;20367;-54
2023/04/10 02:54:50;;;;;;;;;;;20.80;44.40;;;;;;4985021;28;20393;-54
2023/04/10 02:57:16;;;;;;;;;;;20.90;44.20;;;;;;4984183;28;19918;-53
2023/04/10 02:59:42;;;;;;;;;;;20.80;44.10;;;;;;4986035;28;19918;-54
2023/04/10 03:02:07;;;;;;;;;;;20.80;44.40;;;;;;4986035;28;20341;-54
2023/04/10 03:04:33;;;;;;;;;;;20.70;44.50;;;;;;4985922;28;19956;-54
2023/04/10 03:06:58;;;;;;;;;;;20.60;44.70;;;;;;4988137;28;20642;-54
2023/04/10 03:09:24;;;;;;;;;;;20.50;44.80;;;;;;4986027;28;19918;-54
2023/04/10 03:11:49;;;;;;;;;;;20.40;44.80;;;;;;4988249;28;19914;-54
2023/04/10 03:14:15;;;;;;;;;;;20.40;44.80;;;;;;4993316;28;20289;-55
2023/04/10 03:16:41;;;;;;;;;;;20.30;44.80;;;;;;5000420;28;19913;-54
2023/04/10 03:19:06;;;;;;;;;;;20.30;45.00;;;;;;5005817;28;19917;-54
2023/04/10 03:21:32;;;;;;;;;;;20.20;45.00;;;;;;5004222;28;19924;-54
2023/04/10 03:23:58;;;;;;;;;;;20.20;45.10;;;;;;5010804;28;20408;-54
2023/04/10 03:26:24;;;;;;;;;;;20.10;45.20;;;;;;5011386;28;20493;-54
2023/04/10 03:28:49;;;;;;;;;;;20.10;45.20;;;;;;5013052;28;20011;-54
2023/04/10 03:31:15;;;;;;;;;;;20.10;45.20;;;;;;4993888;28;19993;-54
2023/04/10 03:33:40;;;;;;;;;;;20.10;45.10;;;;;;5037033;28;19929;-54
2023/04/10 03:36:06;;;;;;;;;;;20.30;45.00;;;;;;5009608;28;19914;-54
2023/04/10 03:38:31;;;;;;;;;;;20.40;44.80;;;;;;5007233;28;20410;-54
2023/04/10 03:40:57;;;;;;;;;;;20.50;44.70;;;;;;4995166;28;19921;-54
2023/04/10 03:43:23;;;;;;;;;;;20.50;44.30;;;;;;4987408;28;20428;-54
2023/04/10 03:45:48;;;;;;;;;;;20.60;44.30;;;;;;4983951;28;19914;-54
2023/04/10 03:48:14;;;;;;;;;;;20.60;44.30;;;;;;4984857;28;19918;-54
2023/04/10 03:50:39;;;;;;;;;;;20.60;44.30;;;;;;4985792;28;20325;-54
2023/04/10 03:53:05;;;;;;;;;;;20.50;44.40;;;;;;4984158;28;19945;-54
2023/04/10 03:55:30;;;;;;;;;;;20.50;44.40;;;;;;4984006;28;19914;-54
2023/04/10 03:57:56;;;;;;;;;;;20.50;44.40;;;;;;4985336;28;21257;-54
2023/04/10 04:00:22;;;;;;;;;;;20.40;44.30;;;;;;4984015;28;20227;-54
2023/04/10 04:02:51;;;;;;;;;;;20.40;44.30;;;;;;4983856;28;19918;-54
2023/04/10 04:05:17;;;;;;;;;;;20.40;44.20;;;;;;4987258;28;20123;-54
2023/04/10 04:07:42;;;;;;;;;;;20.40;44.30;;;;;;4984283;28;19933;-54
2023/04/10 04:10:08;;;;;;;;;;;20.40;44.10;;;;;;4988509;28;19914;-55
2023/04/10 04:12:33;;;;;;;;;;;20.30;44.20;;;;;;4988964;28;20045;-54
2023/04/10 04:14:58;;;;;;;;;;;20.30;44.50;;;;;;4987565;28;19917;-54
2023/04/10 04:17:24;;;;;;;;;;;20.30;44.70;;;;;;4987250;28;19979;-54
2023/04/10 04:19:49;;;;;;;;;;;20.20;44.60;;;;;;4989594;28;19960;-54
2023/04/10 04:22:15;;;;;;;;;;;20.20;44.60;;;;;;4988337;28;19918;-54
2023/04/10 04:24:40;;;;;;;;;;;20.30;44.70;;;;;;4988055;28;20368;-54
2023/04/10 04:27:06;;;;;;;;;;;20.40;44.40;;;;;;4989031;28;19950;-54
2023/04/10 04:29:31;;;;;;;;;;;20.50;44.10;;;;;;4988637;28;20001;-54
2023/04/10 04:31:57;;;;;;;;;;;20.70;43.90;;;;;;4988505;28;20374;-54
2023/04/10 04:34:22;;;;;;;;;;;20.70;43.70;;;;;;4988508;28;20312;-54
2023/04/10 04:36:48;;;;;;;;;;;20.70;43.60;;;;;;4987694;28;19922;-54
2023/04/10 04:39:13;;;;;;;;;;;20.70;43.60;;;;;;4988525;28;19933;-54
2023/04/10 04:41:39;;;;;;;;;;;20.70;43.60;;;;;;4988630;28;20442;-54
2023/04/10 04:44:05;;;;;;;;;;;20.60;43.70;;;;;;4994124;28;20005;-54
2023/04/10 04:46:31;;;;;;;;;;;20.50;43.80;;;;;;4986339;28;20301;-54
2023/04/10 04:48:56;;;;;;;;;;;20.40;43.80;;;;;;4992368;28;19914;-54
2023/04/10 04:51:21;;;;;;;;;;;20.30;44.00;;;;;;4987230;28;19913;-54
2023/04/10 04:53:47;;;;;;;;;;;20.30;44.20;;;;;;4986511;28;19918;-54
2023/04/10 04:56:12;;;;;;;;;;;20.20;44.40;;;;;;4988004;28;19920;-54
2023/04/10 04:58:38;;;;;;;;;;;20.10;44.50;;;;;;4987947;28;19999;-54
2023/04/10 05:01:03;;;;;;;;;;;20.10;44.50;;;;;;4987225;28;20351;-55
2023/04/10 05:03:29;;;;;;;;;;;20.10;44.50;;;;;;4988850;28;19917;-54
2023/04/10 05:05:55;;;;;;;;;;;20.10;44.50;;;;;;4986510;28;20006;-54
2023/04/10 05:08:20;;;;;;;;;;;20.00;44.40;;;;;;4990580;28;20344;-54
2023/04/10 05:10:46;;;;;;;;;;;20.10;44.40;;;;;;4988011;28;19921;-54
2023/04/10 05:13:11;;;;;;;;;;;20.30;44.10;;;;;;4995120;28;20021;-54
2023/04/10 05:15:37;;;;;;;;;;;20.30;43.90;;;;;;4994718;28;19917;-54
2023/04/10 05:18:02;;;;;;;;;;;20.40;43.90;;;;;;4998368;28;19917;-54
2023/04/10 05:20:28;;;;;;;;;;;20.30;43.70;;;;;;5010593;28;19917;-54
2023/04/10 05:22:53;;;;;;;;;;;20.40;43.80;;;;;;4993171;28;20416;-54
2023/04/10 05:25:18;;;;;;;;;;;20.50;43.70;;;;;;5011621;28;19940;-54
2023/04/10 05:27:44;;;;;;;;;;;20.50;43.50;;;;;;5010535;28;19929;-54
2023/04/10 05:30:10;;;;;;;;;;;20.50;43.20;;;;;;4994284;28;19909;-54
2023/04/10 05:32:35;;;;;;;;;;;20.50;43.40;;;;;;5007537;28;19913;-54
2023/04/10 05:35:00;;;;;;;;;;;20.40;43.60;;;;;;5013336;28;19920;-55
2023/04/10 05:37:26;;;;;;;;;;;20.30;43.70;;;;;;4994690;28;19949;-54
2023/04/10 05:39:51;;;;;;;;;;;20.30;43.80;;;;;;5013682;28;19922;-54
2023/04/10 05:42:17;;;;;;;;;;;20.20;43.80;;;;;;5004170;28;20448;-54
2023/04/10 05:44:43;;;;;;;;;;;20.20;44.00;;;;;;4985364;28;19929;-54
2023/04/10 05:47:08;;;;;;;;;;;20.10;44.00;;;;;;4992045;28;20370;-54
2023/04/10 05:49:34;;;;;;;;;;;20.00;44.10;;;;;;4989738;28;19924;-54
2023/04/10 05:51:59;;;;;;;;;;;20.00;44.30;;;;;;4992322;28;19960;-54
2023/04/10 05:54:25;;;;;;;;;;;20.00;44.30;;;;;;5003308;28;19914;-54
2023/04/10 05:56:50;;;;;;;;;;;20.00;44.40;;;;;;5007304;28;19969;-54
2023/04/10 05:59:16;;;;;;;;;;;20.10;44.50;;;;;;4993855;28;20403;-54
2023/04/10 06:01:41;;;;;;;;;;;20.10;44.30;;;;;;4990492;28;19922;-54
2023/04/10 06:04:07;;;;;;;;;;;20.20;44.00;;;;;;5008981;28;20025;-54
2023/04/10 06:06:32;;;;;;;;;;;20.40;43.80;;;;;;4997219;28;19914;-54
2023/04/10 06:08:58;;;;;;;;;;;20.50;44.10;;;;;;4986143;28;20294;-54
2023/04/10 06:11:23;;;;;;;;;;;20.60;43.30;;;;;;5006469;28;20108;-54
2023/04/10 06:13:49;;;;;;;;;;;20.60;43.10;;;;;;4988293;28;20440;-54
2023/04/10 06:16:15;;;;;;;;;;;20.60;43.10;;;;;;4985304;28;19925;-54
2023/04/10 06:18:40;;;;;;;;;;;20.50;43.00;;;;;;4987231;28;20381;-55
2023/04/10 06:21:06;;;;;;;;;;;20.50;43.10;;;;;;4993433;28;19917;-54
2023/04/10 06:23:31;;;;;;;;;;;20.50;43.20;;;;;;4988796;28;20021;-54
2023/04/10 06:25:57;;;;;;;;;;;20.40;43.20;;;;;;4986256;28;19917;-54
2023/04/10 06:28:22;;;;;;;;;;;20.40;43.30;;;;;;4987335;28;19920;-54
2023/04/10 06:30:48;;;;;;;;;;;20.30;43.30;;;;;;4983809;28;20019;-53
2023/04/10 06:33:13;;;;;;;;;;;20.30;43.30;;;;;;4985717;28;19972;-54
2023/04/10 06:35:39;;;;;;;;;;;20.30;43.50;;;;;;4988844;28;19922;-55
2023/04/10 06:38:04;;;;;;;;;;;20.20;43.50;;;;;;4985978;28;19914;-54
2023/04/10 06:40:32;;;;;;;;;;;20.00;43.80;;;;;;4986011;28;19929;-54
2023/04/10 06:42:58;;;;;;;;;;;20.00;43.90;;;;;;4986246;28;19932;-54
2023/04/10 06:45:24;;;;;;;;;;;20.00;44.20;;;;;;4986403;28;20008;-54
2023/04/10 06:47:49;;;;;;;;;;;19.90;44.00;;;;;;4986991;28;20332;-54
2023/04/10 06:50:15;;;;;;;;;;;20.00;43.70;;;;;;5016272;28;19921;-54
2023/04/10 06:52:40;;;;;;;;;;;20.10;43.60;;;;;;4981939;28;19918;-54
2023/04/10 06:55:06;;;;;;;;;;;20.20;43.50;;;;;;4984704;28;19969;-54
2023/04/10 06:57:31;;;;;;;;;;;20.30;43.40;;;;;;4987332;28;19967;-54
2023/04/10 06:59:57;;;;;;;;;;;20.30;43.20;;;;;;4988624;28;19924;-54
2023/04/10 07:02:22;;;;;;;;;;;20.30;43.10;;;;;;4985574;28;19920;-54
2023/04/10 07:04:48;;;;;;;;;;;20.30;43.00;;;;;;4984022;28;19918;-54
2023/04/10 07:07:14;;;;;;;;;;;20.40;43.00;;;;;;4985140;28;19918;-54
2023/04/10 07:09:40;;;;;;;;;;;20.40;43.20;;;;;;4985221;28;20285;-54
2023/04/10 07:12:06;;;;;;;;;;;20.40;43.10;;;;;;4986538;28;19918;-54
2023/04/10 07:14:32;;;;;;;;;;;20.40;43.20;;;;;;4997098;28;20326;-55
2023/04/10 07:16:57;;;;;;;;;;;20.30;43.10;;;;;;4998840;28;20641;-54
2023/04/10 07:19:23;;;;;;;;;;;20.30;43.20;;;;;;4997283;28;20008;-54
2023/04/10 07:21:49;;;;;;;;;;;20.20;43.30;;;;;;4996534;28;20286;-54
2023/04/10 07:24:17;;;;;;;;;;;20.10;43.40;;;;;;5024766;28;19922;-54
2023/04/10 07:26:45;;;;;;;;;;;20.10;43.60;;;;;;4999528;28;19914;-54
2023/04/10 07:29:11;;;;;;;;;;;20.00;43.80;;;;;;4991017;28;19918;-54
2023/04/10 07:31:36;;;;;;;;;;;20.00;43.80;;;;;;4990973;28;20052;-54
2023/04/10 07:34:02;;;;;;;;;;;19.90;44.00;;;;;;4991292;28;19921;-54
2023/04/10 07:36:27;;;;;;;;;;;19.90;43.90;;;;;;4999885;28;19914;-54
2023/04/10 07:38:53;;;;;;;;;;;19.80;44.10;;;;;;4992475;28;19921;-54
2023/04/10 07:41:19;;;;;;;;;;;19.70;44.20;;;;;;4992026;28;19961;-54
2023/04/10 07:43:45;;;;;;;;;;;19.70;44.20;;;;;;4983867;28;20005;-54
2023/04/10 07:46:10;;;;;;;;;;;19.70;44.30;;;;;;4982464;28;19921;-54
2023/04/10 07:48:36;;;;;;;;;;;19.70;44.10;;;;;;4985731;28;20392;-54
2023/04/10 07:51:01;;;;;;;;;;;19.80;44.30;;;;;;4981339;28;19918;-54
2023/04/10 07:53:27;;;;;;;;;;;19.80;44.30;;;;;;4985630;28;20361;-54
2023/04/10 07:55:52;;;;;;;;;;;19.90;44.20;;;;;;4983637;28;19965;-54
2023/04/10 07:58:18;;;;;;;;;;;20.00;44.00;;;;;;4983994;28;20068;-54
2023/04/10 08:00:43;;;;;;;;;;;20.10;43.80;;;;;;4985032;28;19932;-54
2023/04/10 08:03:10;;;;;;;;;;;20.20;43.60;;;;;;4984885;28;20289;-52
2023/04/10 08:05:35;;;;;;;;;;;20.30;43.50;;;;;;4983027;28;19914;-54
2023/04/10 08:08:01;;;;;;;;;;;20.30;43.50;;;;;;4985456;28;19925;-54
2023/04/10 08:10:26;;;;;;;;;;;20.30;43.50;;;;;;4984765;28;19921;-54
2023/04/10 08:12:52;;;;;;;;;;;20.20;43.50;;;;;;4985205;28;19914;-54
2023/04/10 08:15:17;;;;;;;;;;;20.20;43.80;;;;;;4983844;28;19918;-54
2023/04/10 08:17:43;;;;;;;;;;;20.10;43.70;;;;;;4984421;28;20306;-54
2023/04/10 08:20:08;;;;;;;;;;;20.10;43.80;;;;;;4984887;28;19976;-54
2023/04/10 08:22:34;;;;;;;;;;;20.00;43.90;;;;;;4983896;28;19918;-54
2023/04/10 08:24:59;;;;;;;;;;;20.00;44.00;;;;;;4983818;28;19922;-54
2023/04/10 08:27:25;;;;;;;;;;;19.90;43.90;;;;;;4988057;28;19913;-54
2023/04/10 08:29:50;;;;;;;;;;;19.90;44.00;;;;;;4990594;28;19996;-54
2023/04/10 08:32:16;;;;;;;;;;;19.90;44.10;;;;;;5024067;28;20378;-54
2023/04/10 08:34:41;;;;;;;;;;;19.90;44.30;;;;;;4995626;28;20337;-54
2023/04/10 08:37:08;;;;;;;;;;;19.90;44.40;;;;;;4986189;28;20366;-54
2023/04/10 08:39:34;;;;;;;;;;;19.90;44.30;;;;;;5008115;28;19976;-54
2023/04/10 08:42:00;;;;;;;;;;;19.80;44.20;;;;;;5006564;28;19917;-54
2023/04/10 08:44:26;;;;;;;;;;;19.80;44.30;;;;;;5034338;28;19967;-54
2023/04/10 08:46:51;;;;;;;;;;;19.80;44.30;;;;;;4996568;28;19913;-54
2023/04/10 08:49:21;;;;;;;;;;;19.70;44.70;;;;;;4993923;28;19922;-53
2023/04/10 08:52:06;;;;;;;;;;;19.80;44.30;;;;;;5004807;28;20012;-53
2023/04/10 08:54:32;;;;;;;;;;;19.80;44.20;;;;;;5000176;28;20017;-53
2023/04/10 08:57:00;;;;;;;;;;;19.90;44.30;;;;;;5042515;28;20648;-53
2023/04/10 08:59:26;;;;;;;;;;;19.90;44.30;;;;;;5008535;28;19913;-53
2023/04/10 09:01:52;;;;;;;;;;;19.90;44.40;;;;;;5009750;28;20417;-53
2023/04/10 09:04:17;;;;;;;;;;;19.90;44.30;;;;;;5000747;28;19969;-53
2023/04/10 09:06:43;;;;;;;;;;;19.90;44.40;;;;;;4992833;28;20416;-53
2023/04/10 09:09:08;;;;;;;;;;;19.90;44.40;;;;;;5013975;28;19917;-53
2023/04/10 09:11:54;;;;;;;;;;;19.90;44.60;;;;;;5004406;28;20408;-53
2023/04/10 09:14:20;;;;;;;;;;;19.90;44.80;;;;;;4995167;28;19913;-53
2023/04/10 09:16:45;;;;;;;;;;;19.90;44.70;;;;;;4996480;28;19969;-53
2023/04/10 09:19:11;;;;;;;;;;;19.90;45.50;;;;;;5033960;28;19913;-53
2023/04/10 09:21:36;;;;;;;;;;;19.90;44.90;;;;;;4998740;28;19928;-53
2023/04/10 09:24:02;;;;;;;;;;;19.90;45.00;;;;;;5010692;28;20381;-54
2023/04/10 09:26:28;;;;;;;;;;;19.90;45.20;;;;;;5006851;28;20424;-53
2023/04/10 09:28:56;;;;;;;;;;;19.90;45.50;;;;;;4995386;28;20432;-53
2023/04/10 09:31:31;;;;;;;;;;;19.90;45.50;;;;;;5009612;28;19913;-53
2023/04/10 09:34:07;;;;;;;;;;;19.90;45.60;;;;;;4997084;28;19997;-53
2023/04/10 09:36:32;;;;;;;;;;;19.80;45.80;;;;;;4989013;28;19920;-53
2023/04/10 09:38:57;;;;;;;;;;;19.90;45.60;;;;;;5004633;28;19929;-54
2023/04/10 09:41:23;;;;;;;;;;;19.90;45.80;;;;;;4989263;28;19949;-53
2023/04/10 09:43:48;;;;;;;;;;;19.90;45.90;;;;;;4999378;28;19921;-54
2023/04/10 09:46:24;;;;;;;;;;;19.80;45.90;;;;;;4998484;28;20378;-53
2023/04/10 09:48:53;;;;;;;;;;;19.80;45.60;;;;;;5000732;28;19944;-53
2023/04/10 09:51:27;;;;;;;;;;;19.70;45.50;;;;;;4984797;28;19922;-53
2023/04/10 09:53:52;;;;;;;;;;;19.80;45.90;;;;;;5002353;28;19913;-53
2023/04/10 09:56:18;;;;;;;;;;;19.80;45.90;;;;;;4993693;28;19918;-52
2023/04/10 09:58:44;;;;;;;;;;;19.80;45.90;;;;;;5003495;28;19992;-53
2023/04/10 10:01:09;;;;;;;;;;;19.80;45.90;;;;;;5030527;28;19918;-53
2023/04/10 10:03:35;;;;;;;;;;;19.80;45.90;;;;;;5023920;28;19918;-53
2023/04/10 10:06:00;;;;;;;;;;;19.80;45.70;;;;;;4983901;28;19960;-53
2023/04/10 10:08:26;;;;;;;;;;;19.90;45.80;;;;;;4994969;28;19917;-53
2023/04/10 10:10:53;;;;;;;;;;;19.90;45.70;;;;;;5004676;28;19914;-53
2023/04/10 10:13:27;;;;;;;;;;;19.90;45.40;;;;;;5010027;28;19917;-53
2023/04/10 10:15:53;;;;;;;;;;;19.90;45.30;;;;;;4999333;28;19913;-54
2023/04/10 10:18:25;;;;;;;;;;;19.90;45.20;;;;;;4986751;28;19917;-52
2023/04/10 10:20:50;;;;;;;;;;;19.90;45.00;;;;;;4995775;28;20314;-53
2023/04/10 10:23:16;;;;;;;;;;;20.00;44.80;;;;;;5003945;28;19914;-53
2023/04/10 10:25:41;;;;;;;;;;;19.90;44.50;;;;;;5009037;28;20393;-53
2023/04/10 10:28:07;;;;;;;;;;;19.90;44.40;;;;;;4995376;28;20426;-53
2023/04/10 10:30:33;;;;;;;;;;;19.90;44.50;;;;;;5021027;28;20310;-53
2023/04/10 10:32:59;;;;;;;;;;;19.90;44.40;;;;;;4999742;28;19972;-53
2023/04/10 10:35:31;;;;;;;;;;;19.90;44.30;;;;;;5038953;28;19964;-54
2023/04/10 10:37:58;;;;;;;;;;;19.90;44.20;;;;;;4993802;28;20297;-53
2023/04/10 10:40:32;;;;;;;;;;;19.90;44.20;;;;;;4976032;28;20390;-53
2023/04/10 10:43:04;;;;;;;;;;;19.90;43.50;;;;;;4993511;28;19992;-53
2023/04/10 10:45:30;;;;;;;;;;;19.90;42.40;;;;;;4992207;28;19917;-53
2023/04/10 10:47:55;;;;;;;;;;;19.80;42.00;;;;;;4990062;28;20401;-53
2023/04/10 10:50:24;;;;;;;;;;;19.80;41.60;;;;;;4993698;28;20092;-53
2023/04/10 10:52:51;;;;;;;;;;;19.80;41.80;;;;;;4990685;28;20411;-53
2023/04/10 10:55:27;;;;;;;;;;;19.80;41.80;;;;;;4979959;28;20304;-53
2023/04/10 10:58:03;;;;;;;;;;;19.70;41.90;;;;;;4989345;28;19910;-53
2023/04/10 11:00:47;;;;;;;;;;;19.70;41.20;;;;;;4976477;28;19943;-53
2023/04/10 11:03:13;;;;;;;;;;;19.70;40.90;;;;;;4993753;28;19909;-54
2023/04/10 11:05:53;;;;;;;;;;;19.70;40.60;;;;;;4998586;28;19917;-54
2023/04/10 11:08:46;;;;;;;;;;;19.70;40.30;;;;;;4999376;28;19975;-54
2023/04/10 11:11:15;;;;;;;;;;;19.70;41.10;;;;;;4991200;28;19932;-55
2023/04/10 11:13:56;;;;;;;;;;;19.70;41.20;;;;;;4991829;28;19913;-54
2023/04/10 11:16:22;;;;;;;;;;;19.70;41.30;;;;;;4992440;28;20008;-54
2023/04/10 11:18:47;;;;;;;;;;;19.80;41.30;;;;;;4992638;28;20393;-55
2023/04/10 11:21:22;;;;;;;;;;;19.80;41.30;;;;;;4993114;28;19913;-54
2023/04/10 11:23:51;;;;;;;;;;;19.90;41.10;;;;;;4992113;28;19921;-54
2023/04/10 11:26:32;;;;;;;;;;;19.90;41.00;;;;;;4975399;28;19922;-54
2023/04/10 11:28:58;;;;;;;;;;;19.90;41.00;;;;;;4986967;28;19967;-55
2023/04/10 11:31:23;;;;;;;;;;;20.00;40.90;;;;;;5011225;28;20380;-54
2023/04/10 11:33:55;;;;;;;;;;;20.10;40.80;;;;;;4993456;28;20462;-54
2023/04/10 11:36:20;;;;;;;;;;;20.10;40.60;;;;;;4992955;28;20374;-55
2023/04/10 11:39:06;;;;;;;;;;;20.10;40.60;;;;;;4985983;28;19929;-54
2023/04/10 11:41:32;;;;;;;;;;;20.10;40.50;;;;;;5003633;28;19976;-54
2023/04/10 11:43:58;;;;;;;;;;;20.10;40.50;;;;;;5012626;28;19952;-54
2023/04/10 11:46:23;;;;;;;;;;;20.20;40.50;;;;;;5011777;28;19972;-54
2023/04/10 11:48:52;;;;;;;;;;;20.20;40.40;;;;;;5012643;28;19920;-54
2023/04/10 11:51:18;;;;;;;;;;;20.20;40.30;;;;;;5006807;28;23157;-55
2023/04/10 11:53:43;;;;;;;;;;;20.20;40.10;;;;;;4991610;28;20393;-54
2023/04/10 11:56:15;;;;;;;;;;;20.20;40.10;;;;;;5024479;28;20310;-54
2023/04/10 11:58:41;;;;;;;;;;;20.20;40.10;;;;;;4993005;28;19917;-55
2023/04/10 12:01:10;;;;;;;;;;;20.20;40.10;;;;;;4991037;28;19921;-55
2023/04/10 12:03:37;;;;;;;;;;;20.20;39.40;;;;;;4995994;28;20286;-55
2023/04/10 12:06:03;;;;;;;;;;;20.20;38.80;;;;;;4989058;28;19953;-53
2023/04/10 12:08:29;;;;;;;;;;;20.10;38.60;;;;;;4979763;28;19953;-54
2023/04/10 12:10:55;;;;;;;;;;;20.00;38.40;;;;;;5002627;28;19973;-53
2023/04/10 12:13:26;;;;;;;;;;;20.00;38.30;;;;;;4992468;28;19910;-54
2023/04/10 12:15:53;;;;;;;;;;;20.00;39.00;;;;;;4991913;28;19977;-54
2023/04/10 12:18:19;;;;;;;;;;;20.00;39.40;;;;;;4994280;28;19918;-54
2023/04/10 12:20:44;;;;;;;;;;;19.90;39.40;;;;;;4992295;28;19969;-54
2023/04/10 12:23:09;;;;;;;;;;;19.90;39.40;;;;;;4991475;28;19917;-52
2023/04/10 12:25:35;;;;;;;;;;;19.90;39.50;;;;;;4986874;28;19949;-54
2023/04/10 12:28:00;;;;;;;;;;;19.90;39.40;;;;;;4983594;28;19914;-54
2023/04/10 12:30:26;;;;;;;;;;;19.90;39.40;;;;;;4994465;28;19910;-54
2023/04/10 12:32:55;;;;;;;;;;;19.90;39.50;;;;;;5028434;28;19920;-54
2023/04/10 12:35:36;;;;;;;;;;;19.90;39.60;;;;;;4996018;28;19957;-53
2023/04/10 12:38:01;;;;;;;;;;;19.90;39.60;;;;;;5004473;28;19918;-54
2023/04/10 12:40:27;;;;;;;;;;;19.80;39.50;;;;;;5029417;28;20020;-54
2023/04/10 12:42:52;;;;;;;;;;;19.80;39.70;;;;;;4996351;28;19929;-54
2023/04/10 12:45:18;;;;;;;;;;;19.80;39.70;;;;;;4995318;28;20016;-54
2023/04/10 12:47:47;;;;;;;;;;;19.80;39.60;;;;;;4996310;28;20378;-54
2023/04/10 12:50:13;;;;;;;;;;;19.80;39.50;;;;;;5004947;28;19914;-53
2023/04/10 12:52:39;;;;;;;;;;;19.80;39.50;;;;;;5014405;28;20007;-53
2023/04/10 12:55:12;;;;;;;;;;;19.90;39.50;;;;;;5001810;28;20330;-54
2023/04/10 12:57:37;;;;;;;;;;;19.90;39.50;;;;;;4996149;28;19917;-54
2023/04/10 13:00:04;;;;;;;;;;;19.90;39.30;;;;;;4995034;28;19910;-54
2023/04/10 13:02:29;;;;;;;;;;;19.90;39.30;;;;;;4991258;28;19992;-54
2023/04/10 13:04:55;;;;;;;;;;;19.90;39.20;;;;;;4994370;28;19996;-54
2023/04/10 13:07:20;;;;;;;;;;;19.90;39.10;;;;;;4995998;28;19910;-54
2023/04/10 13:09:46;;;;;;;;;;;19.90;39.20;;;;;;4995562;28;19910;-54
2023/04/10 13:12:11;;;;;;;;;;;19.90;39.10;;;;;;4990438;28;19914;-54
2023/04/10 13:14:37;;;;;;;;;;;19.90;39.00;;;;;;5008066;28;19952;-54
2023/04/10 13:17:02;;;;;;;;;;;19.90;39.00;;;;;;5004161;28;19913;-53
2023/04/10 13:19:28;;;;;;;;;;;19.90;39.00;;;;;;4992236;28;19928;-54
2023/04/10 13:21:53;;;;;;;;;;;19.90;39.00;;;;;;4987587;28;20350;-54
2023/04/10 13:24:19;;;;;;;;;;;19.90;39.00;;;;;;4994209;28;20000;-53
2023/04/10 13:26:44;;;;;;;;;;;19.90;38.90;;;;;;4995477;28;20279;-53
2023/04/10 13:29:10;;;;;;;;;;;19.90;38.90;;;;;;4995121;28;19936;-53
2023/04/10 13:31:35;;;;;;;;;;;19.90;38.90;;;;;;4992534;28;19957;-54
2023/04/10 13:34:00;;;;;;;;;;;19.90;38.90;;;;;;4995340;28;19965;-54
2023/04/10 13:36:26;;;;;;;;;;;19.90;38.90;;;;;;4995168;28;19957;-54
2023/04/10 13:38:51;;;;;;;;;;;19.90;38.90;;;;;;4993497;28;19926;-53
2023/04/10 13:41:17;;;;;;;;;;;19.90;38.70;;;;;;4975472;28;19918;-54
2023/04/10 13:43:42;;;;;;;;;;;19.90;38.60;;;;;;4992735;28;19914;-54
2023/04/10 13:46:08;;;;;;;;;;;19.90;38.40;;;;;;4992864;28;19914;-54
2023/04/10 13:48:35;;;;;;;;;;;20.00;38.30;;;;;;4994499;28;19914;-54
2023/04/10 13:51:01;;;;;;;;;;;20.00;38.30;;;;;;4997802;28;19975;-54
2023/04/10 13:53:26;;;;;;;;;;;20.10;38.30;;;;;;5014584;28;19910;-53
2023/04/10 13:55:52;;;;;;;;;;;20.10;38.00;;;;;;4994507;28;20263;-54
2023/04/10 13:58:17;;;;;;;;;;;20.20;38.00;;;;;;4995084;28;20267;-53
2023/04/10 14:00:43;;;;;;;;;;;20.20;37.90;;;;;;4996266;28;19940;-54
2023/04/10 14:03:10;;;;;;;;;;;20.20;38.00;;;;;;4999583;28;20358;-54
2023/04/10 14:05:37;;;;;;;;;;;20.20;38.10;;;;;;4994137;28;19976;-54
2023/04/10 14:08:02;;;;;;;;;;;20.20;38.20;;;;;;4995066;28;19918;-54
2023/04/10 14:10:28;;;;;;;;;;;20.10;38.10;;;;;;4993529;28;19962;-54
2023/04/10 14:12:53;;;;;;;;;;;20.10;38.20;;;;;;4999711;28;19929;-54